Time;durP1;ratioP1;P1;durP2;ratioP2;P2;SDS_P1;SDS_P2;PMS_P1;PMS_P2;Temp;Humidity;BMP_temperature;BMP_pressure;BME280_temperature;BME280_humidity;BME280_pressure;Samples;Min_cycle;Max_cycle;Signal;HPM_P1;HPM_P2
2021/08/18 00:00:59;;;;;;;0.77;0.63;;;;;;;16.28;100.00;100325.41;4954852;28;20876;-57
2021/08/18 00:03:28;;;;;;;0.40;0.20;;;;;;;16.28;100.00;100322.72;4953529;28;20447;-56
2021/08/18 00:05:55;;;;;;;0.40;0.20;;;;;;;16.32;100.00;100316.25;4954408;28;20597;-57
2021/08/18 00:08:22;;;;;;;0.53;0.53;;;;;;;16.37;100.00;100318.69;4954214;28;20487;-57
2021/08/18 00:10:49;;;;;;;0.40;0.20;;;;;;;16.35;100.00;100324.16;4945014;28;20482;-57
2021/08/18 00:13:16;;;;;;;0.40;0.20;;;;;;;16.36;100.00;100327.69;4950142;28;20494;-57
2021/08/18 00:15:43;;;;;;;0.40;0.20;;;;;;;16.49;100.00;100326.97;4954747;28;20604;-57
2021/08/18 00:18:10;;;;;;;1.03;0.93;;;;;;;16.35;100.00;100331.34;4954102;28;20992;-57
2021/08/18 00:20:37;;;;;;;0.67;0.67;;;;;;;16.31;100.00;100330.63;4954395;28;20514;-56
2021/08/18 00:23:04;;;;;;;2.40;1.13;;;;;;;16.38;100.00;100336.53;4954149;28;20494;-56
2021/08/18 00:25:32;;;;;;;0.40;0.20;;;;;;;16.43;100.00;100334.47;4954015;28;20487;-57
2021/08/18 00:27:59;;;;;;;0.40;0.30;;;;;;;16.38;100.00;100334.72;4953932;28;20475;-56
2021/08/18 00:30:27;;;;;;;0.40;0.20;;;;;;;16.43;100.00;100339.84;4954120;28;20483;-57
2021/08/18 00:32:54;;;;;;;0.60;0.60;;;;;;;16.38;100.00;100333.84;4954050;29;20878;-56
2021/08/18 00:35:22;;;;;;;0.40;0.20;;;;;;;16.43;100.00;100334.47;4954159;28;20485;-57
2021/08/18 00:37:49;;;;;;;0.40;0.20;;;;;;;16.52;100.00;100325.94;4953845;28;20514;-56
2021/08/18 00:40:16;;;;;;;0.40;0.23;;;;;;;16.49;100.00;100326.97;4954101;28;20459;-57
2021/08/18 00:42:47;;;;;;;0.40;0.20;;;;;;;16.41;100.00;100331.88;4951435;28;20542;-56
2021/08/18 00:45:16;;;;;;;0.40;0.20;;;;;;;16.37;100.00;100330.31;4946675;29;20815;-56
2021/08/18 00:47:45;;;;;;;0.37;0.20;;;;;;;16.38;100.00;100332.03;4953787;28;20479;-56
2021/08/18 00:50:17;;;;;;;1.90;1.90;;;;;;;16.41;100.00;100331.00;4952877;29;20455;-56
2021/08/18 00:52:47;;;;;;;0.40;0.20;;;;;;;16.41;100.00;100325.63;4953880;29;20443;-56
2021/08/18 00:55:17;;;;;;;0.40;0.20;;;;;;;16.29;100.00;100327.13;4953940;28;20451;-56
2021/08/18 00:57:44;;;;;;;0.40;0.20;;;;;;;16.37;100.00;100329.44;4953841;28;20482;-56
2021/08/18 01:00:14;;;;;;;0.40;0.20;;;;;;;16.40;100.00;100335.50;4953709;28;21017;-57
2021/08/18 01:02:46;;;;;;;0.40;0.20;;;;;;;16.33;100.00;100325.19;4953015;28;20443;-56
2021/08/18 01:05:35;;;;;;;2.00;1.13;;;;;;;16.29;100.00;100322.63;4953689;28;20872;-57
2021/08/18 01:08:02;;;;;;;0.40;0.30;;;;;;;16.26;100.00;100319.25;4953926;28;20545;-57
2021/08/18 01:10:32;;;;;;;0.40;0.20;;;;;;;16.30;100.00;100329.72;4937757;29;20513;-56
2021/08/18 01:13:00;;;;;;;0.40;0.30;;;;;;;16.34;100.00;100318.88;4953520;28;20479;-57
2021/08/18 01:15:29;;;;;;;0.40;0.20;;;;;;;16.32;100.00;100315.41;4953623;28;20451;-57
2021/08/18 01:17:58;;;;;;;0.40;0.40;;;;;;;16.36;100.00;100316.97;4954933;28;20471;-57
2021/08/18 01:20:27;;;;;;;0.40;0.20;;;;;;;16.40;100.00;100319.41;4942889;28;20498;-57
2021/08/18 01:22:56;;;;;;;0.40;0.20;;;;;;;16.33;100.00;100323.38;4948999;29;20458;-57
2021/08/18 01:25:23;;;;;;;4.40;1.07;;;;;;;16.41;100.00;100328.31;4957296;28;20487;-57
2021/08/18 01:27:53;;;;;;;0.40;0.20;;;;;;;16.36;100.00;100320.53;4957002;28;20478;-57
2021/08/18 01:30:23;;;;;;;0.40;0.20;;;;;;;16.26;100.00;100317.44;4956250;29;20479;-57
2021/08/18 01:32:56;;;;;;;0.40;0.20;;;;;;;16.38;100.00;100320.44;4955970;29;20448;-57
2021/08/18 01:35:36;;;;;;;0.40;0.20;;;;;;;16.47;100.00;100320.84;4957299;28;20443;-56
2021/08/18 01:38:06;;;;;;;0.40;0.20;;;;;;;16.44;100.00;100323.66;4957050;28;20518;-57
2021/08/18 01:40:34;;;;;;;0.40;0.20;;;;;;;16.37;100.00;100316.03;4956952;28;20518;-57
2021/08/18 01:43:01;;;;;;;2.97;0.67;;;;;;;16.33;100.00;100319.81;4952014;28;20515;-57
2021/08/18 01:45:29;;;;;;;0.50;0.30;;;;;;;16.27;100.00;100316.47;4951062;29;20931;-56
2021/08/18 01:47:56;;;;;;;0.40;0.20;;;;;;;16.46;100.00;100318.22;4956867;28;20482;-56
2021/08/18 01:50:25;;;;;;;0.40;0.20;;;;;;;16.47;100.00;100317.28;4956724;29;20530;-57
2021/08/18 01:52:56;;;;;;;0.40;0.40;;;;;;;16.42;100.00;100317.50;4956840;29;20889;-56
2021/08/18 01:55:24;;;;;;;1.73;1.63;;;;;;;16.37;100.00;100324.94;4956675;28;20510;-57
2021/08/18 01:57:56;;;;;;;0.40;0.20;;;;;;;16.51;100.00;100318.84;4956886;28;20570;-56
2021/08/18 02:00:23;;;;;;;0.40;0.20;;;;;;;16.40;100.00;100329.28;4956633;28;21012;-56
2021/08/18 02:02:51;;;;;;;0.40;0.20;;;;;;;16.62;100.00;100318.28;4955808;28;20482;-56
2021/08/18 02:05:19;;;;;;;0.67;0.67;;;;;;;16.62;100.00;100320.97;4956337;28;20478;-57
2021/08/18 02:07:45;;;;;;;0.47;0.40;;;;;;;16.56;100.00;100322.16;4956571;28;20530;-56
2021/08/18 02:10:15;;;;;;;0.40;0.20;;;;;;;16.50;100.00;100319.78;4946597;28;21006;-56
2021/08/18 02:12:42;;;;;;;0.40;0.20;;;;;;;16.55;100.00;100320.41;4954072;28;21024;-56
2021/08/18 02:15:17;;;;;;;0.40;0.20;;;;;;;16.47;100.00;100309.22;4954616;29;20506;-57
2021/08/18 02:17:44;;;;;;;0.40;0.20;;;;;;;16.55;100.00;100317.72;4956330;28;20988;-56
2021/08/18 02:20:16;;;;;;;0.40;0.20;;;;;;;16.53;100.00;100311.56;4956190;28;20564;-57
2021/08/18 02:22:43;;;;;;;0.40;0.20;;;;;;;16.54;100.00;100316.00;4956494;28;20455;-56
2021/08/18 02:25:11;;;;;;;0.50;0.50;;;;;;;16.53;100.00;100316.94;4956482;28;20451;-56
2021/08/18 02:27:39;;;;;;;0.77;0.40;;;;;;;16.51;100.00;100318.84;4954702;29;20551;-56
2021/08/18 02:30:07;;;;;;;2.33;1.07;;;;;;;16.61;100.00;100322.78;4954942;28;20459;-57
2021/08/18 02:32:35;;;;;;;0.40;0.20;;;;;;;16.56;100.00;100312.28;4954816;29;20530;-57
2021/08/18 02:35:02;;;;;;;0.40;0.20;;;;;;;16.44;100.00;100314.72;4956055;28;20910;-57
2021/08/18 02:37:29;;;;;;;0.40;0.20;;;;;;;16.44;100.00;100317.41;4956068;28;20538;-57
2021/08/18 02:39:56;;;;;;;0.40;0.30;;;;;;;16.43;100.00;100316.56;4955932;28;20514;-57
2021/08/18 02:42:24;;;;;;;0.40;0.20;;;;;;;16.46;100.00;100310.19;4955738;28;21028;-57
2021/08/18 02:44:51;;;;;;;0.40;0.20;;;;;;;16.46;100.00;100311.06;4945148;29;20502;-57
2021/08/18 02:47:18;;;;;;;0.40;0.20;;;;;;;16.40;100.00;100321.22;4955362;28;20518;-57
2021/08/18 02:49:45;;;;;;;0.40;0.20;;;;;;;16.45;100.00;100317.38;4955782;28;20937;-57
2021/08/18 02:52:12;;;;;;;0.40;0.37;;;;;;;16.62;100.00;100313.78;4953582;28;20478;-57
2021/08/18 02:54:40;;;;;;;0.40;0.20;;;;;;;16.52;100.00;100313.41;4945251;29;20510;-57
2021/08/18 02:57:07;;;;;;;0.97;0.60;;;;;;;16.51;100.00;100314.34;4955351;28;20479;-57
2021/08/18 02:59:34;;;;;;;0.40;0.20;;;;;;;16.44;100.00;100312.06;4955537;28;20487;-57
2021/08/18 03:02:01;;;;;;;0.40;0.20;;;;;;;16.40;100.00;100322.09;4954671;28;20945;-57
2021/08/18 03:04:28;;;;;;;0.40;0.20;;;;;;;16.48;100.00;100313.66;4955824;28;20478;-57
2021/08/18 03:06:55;;;;;;;0.40;0.20;;;;;;;16.53;100.00;100306.22;4955185;28;20495;-57
2021/08/18 03:09:23;;;;;;;0.40;0.20;;;;;;;16.56;100.00;100308.72;4948275;28;20523;-57
2021/08/18 03:11:51;;;;;;;0.40;0.20;;;;;;;16.62;100.00;100312.91;4953400;29;20455;-57
2021/08/18 03:14:19;;;;;;;0.40;0.20;;;;;;;16.56;100.00;100309.59;4951056;28;20455;-57
2021/08/18 03:16:48;;;;;;;0.40;0.20;;;;;;;16.59;100.00;100314.81;4955115;28;20451;-57
2021/08/18 03:19:15;;;;;;;0.40;0.20;;;;;;;16.60;100.00;100310.31;4955249;28;20503;-57
2021/08/18 03:21:42;;;;;;;0.40;0.20;;;;;;;16.47;100.00;100314.59;4955186;28;20486;-57
2021/08/18 03:24:09;;;;;;;0.40;0.20;;;;;;;16.59;100.00;100308.59;4955270;28;20530;-57
2021/08/18 03:26:36;;;;;;;0.40;0.20;;;;;;;16.49;100.00;100318.94;4954854;28;21051;-57
2021/08/18 03:29:03;;;;;;;0.40;0.20;;;;;;;16.51;100.00;100310.78;4955076;28;20510;-57
2021/08/18 03:31:30;;;;;;;0.53;0.47;;;;;;;16.50;100.00;100312.63;4955132;28;20498;-56
2021/08/18 03:33:57;;;;;;;0.40;0.20;;;;;;;16.56;100.00;100309.59;4955294;28;20520;-56
2021/08/18 03:36:24;;;;;;;0.40;0.20;;;;;;;16.44;100.00;100306.69;4955033;28;20504;-56
2021/08/18 03:38:51;;;;;;;0.40;0.20;;;;;;;16.35;100.00;100301.81;4954971;29;20479;-56
2021/08/18 03:41:18;;;;;;;0.40;0.20;;;;;;;16.49;100.00;100307.34;4954281;28;20878;-56
2021/08/18 03:43:45;;;;;;;0.40;0.20;;;;;;;16.52;100.00;100313.41;4944261;28;20873;-56
2021/08/18 03:46:12;;;;;;;0.40;0.20;;;;;;;16.44;100.00;100312.06;4954216;29;20498;-56
2021/08/18 03:48:38;;;;;;;0.77;0.77;;;;;;;16.44;100.00;100302.19;4954590;28;20487;-56
2021/08/18 03:51:05;;;;;;;0.40;0.20;;;;;;;16.32;100.00;100310.03;4954643;28;20502;-56
2021/08/18 03:53:32;;;;;;;0.40;0.20;;;;;;;16.32;100.00;100310.03;4954621;29;20486;-56
2021/08/18 03:55:59;;;;;;;0.40;0.20;;;;;;;16.29;100.00;100311.91;4954863;28;20476;-57
2021/08/18 03:58:26;;;;;;;0.40;0.20;;;;;;;16.48;100.00;100313.66;4953227;29;20475;-57
2021/08/18 04:00:53;;;;;;;0.40;0.20;;;;;;;16.43;100.00;100313.88;4954729;28;20526;-57
2021/08/18 04:03:20;;;;;;;0.60;0.53;;;;;;;16.35;100.00;100316.09;4953395;28;20973;-57
2021/08/18 04:05:48;;;;;;;0.40;0.20;;;;;;;16.41;100.00;100317.59;4954322;28;20456;-56
2021/08/18 04:08:15;;;;;;;0.50;0.50;;;;;;;16.33;100.00;100315.31;4954096;28;21067;-57
2021/08/18 04:10:42;;;;;;;0.40;0.20;;;;;;;16.35;100.00;100317.91;4944046;29;20451;-56
2021/08/18 04:13:09;;;;;;;5.90;0.77;;;;;;;16.28;100.00;100320.03;4949988;28;20460;-57
2021/08/18 04:15:38;;;;;;;0.50;0.43;;;;;;;16.35;100.00;100317.91;4954316;28;20463;-56
2021/08/18 04:18:07;;;;;;;0.40;0.30;;;;;;;16.28;100.00;100318.22;4954157;28;20474;-56
2021/08/18 04:20:35;;;;;;;0.40;0.20;;;;;;;16.39;100.00;100319.47;4954256;28;20459;-56
2021/08/18 04:23:03;;;;;;;0.40;0.20;;;;;;;16.40;100.00;100323.91;4954013;28;20459;-56
2021/08/18 04:25:30;;;;;;;0.40;0.20;;;;;;;16.30;100.00;100324.38;4953049;29;20483;-56
2021/08/18 04:27:58;;;;;;;0.40;0.20;;;;;;;16.30;100.00;100329.72;4954005;29;20499;-56
2021/08/18 04:30:25;;;;;;;0.40;0.20;;;;;;;16.20;100.00;100323.13;4954347;28;20490;-56
2021/08/18 04:32:52;;;;;;;0.40;0.20;;;;;;;16.21;100.00;100324.88;4954100;29;20494;-56
2021/08/18 04:35:20;;;;;;;0.60;0.57;;;;;;;16.23;100.00;100322.09;4953940;28;20548;-56
2021/08/18 04:37:47;;;;;;;0.40;0.20;;;;;;;16.25;100.00;100323.75;4954196;28;20475;-56
2021/08/18 04:40:15;;;;;;;0.40;0.20;;;;;;;16.27;100.00;100329.03;4954220;28;20503;-56
2021/08/18 04:42:45;;;;;;;0.40;0.20;;;;;;;16.29;100.00;100325.31;4951403;28;21024;-56
2021/08/18 04:45:13;;;;;;;0.40;0.20;;;;;;;16.55;100.00;100328.47;4928797;29;20462;-56
2021/08/18 04:47:40;;;;;;;0.40;0.30;;;;;;;16.40;100.00;100329.28;4938983;29;20553;-56
2021/08/18 04:50:10;;;;;;;0.40;0.37;;;;;;;16.35;100.00;100326.84;4954391;28;20521;-59
2021/08/18 04:52:37;;;;;;;0.40;0.30;;;;;;;16.44;100.00;100328.16;4954475;28;20986;-59
2021/08/18 04:55:04;;;;;;;0.40;0.20;;;;;;;16.44;100.00;100322.78;4957949;28;20455;-59
2021/08/18 04:57:31;;;;;;;0.40;0.20;;;;;;;16.42;100.00;100325.56;4957649;28;20471;-59
2021/08/18 04:59:59;;;;;;;0.40;0.20;;;;;;;16.50;100.00;100325.16;4957839;28;20893;-59
2021/08/18 05:02:26;;;;;;;0.40;0.20;;;;;;;16.67;100.00;100324.25;4956491;28;20823;-59
2021/08/18 05:04:53;;;;;;;0.40;0.20;;;;;;;16.66;100.00;100323.41;4957552;28;20463;-60
2021/08/18 05:07:20;;;;;;;0.40;0.20;;;;;;;16.58;100.00;100321.13;4957363;28;20494;-59
2021/08/18 05:09:47;;;;;;;0.40;0.20;;;;;;;16.60;100.00;100321.06;4947828;28;20491;-60
2021/08/18 05:12:14;;;;;;;0.50;0.47;;;;;;;16.46;100.00;100315.53;4957587;28;20466;-59
2021/08/18 05:14:41;;;;;;;0.40;0.20;;;;;;;16.49;100.00;100318.94;4952686;28;20455;-59
2021/08/18 05:17:08;;;;;;;0.40;0.20;;;;;;;16.58;100.00;100315.78;4957246;28;20451;-59
2021/08/18 05:19:35;;;;;;;0.40;0.30;;;;;;;16.71;100.00;100326.72;4957151;28;20510;-59
2021/08/18 05:22:02;;;;;;;0.40;0.20;;;;;;;16.82;100.00;100320.78;4956131;29;20506;-59
2021/08/18 05:24:29;;;;;;;0.40;0.20;;;;;;;16.82;100.00;100324.34;4956092;29;20472;-60
2021/08/18 05:26:56;;;;;;;0.40;0.20;;;;;;;16.86;100.00;100319.69;4957172;28;20578;-59
2021/08/18 05:29:23;;;;;;;0.40;0.20;;;;;;;16.80;100.00;100320.88;4957012;28;20467;-59
2021/08/18 05:31:50;;;;;;;0.40;0.20;;;;;;;16.92;100.00;100321.16;4957078;28;20948;-60
2021/08/18 05:34:17;;;;;;;0.40;0.20;;;;;;;16.76;100.00;100330.06;4957000;28;20455;-60
2021/08/18 05:36:44;;;;;;;0.40;0.20;;;;;;;16.79;100.00;100329.88;4956935;28;20487;-60
2021/08/18 05:39:11;;;;;;;0.40;0.20;;;;;;;16.97;100.00;100332.53;4956711;28;20513;-60
2021/08/18 05:41:38;;;;;;;0.40;0.20;;;;;;;17.02;100.00;100335.84;4955847;29;20483;-59
2021/08/18 05:44:05;;;;;;;0.40;0.20;;;;;;;16.99;100.00;100338.66;4945572;28;20468;-60
2021/08/18 05:46:32;;;;;;;0.50;0.40;;;;;;;17.07;100.00;100340.00;4956624;28;20487;-59
2021/08/18 05:48:59;;;;;;;0.40;0.20;;;;;;;16.96;100.00;100342.41;4956495;28;20562;-60
2021/08/18 05:51:26;;;;;;;0.40;0.20;;;;;;;16.79;100.00;100335.25;4956859;28;20520;-59
2021/08/18 05:53:52;;;;;;;0.40;0.20;;;;;;;16.89;100.00;100335.63;4956611;28;20537;-59
2021/08/18 05:56:20;;;;;;;0.40;0.20;;;;;;;16.84;100.00;100333.19;4956721;28;20483;-59
2021/08/18 05:58:47;;;;;;;0.40;0.20;;;;;;;16.91;100.00;100335.56;4956302;29;20475;-59
2021/08/18 06:01:14;;;;;;;0.40;0.20;;;;;;;17.06;100.00;100342.78;4956808;28;20511;-59
2021/08/18 06:03:41;;;;;;;0.40;0.20;;;;;;;17.13;100.00;100338.78;4954058;28;20486;-59
2021/08/18 06:06:07;;;;;;;0.40;0.20;;;;;;;17.05;100.00;100335.66;4956657;28;20488;-59
2021/08/18 06:08:34;;;;;;;0.47;0.40;;;;;;;17.05;100.00;100332.97;4955502;28;21016;-59
2021/08/18 06:11:01;;;;;;;0.40;0.20;;;;;;;17.15;100.00;100331.53;4947735;29;20515;-59
2021/08/18 06:13:29;;;;;;;0.40;0.33;;;;;;;17.01;100.00;100334.97;4951791;28;20510;-58
2021/08/18 06:15:56;;;;;;;0.40;0.20;;;;;;;16.95;100.00;100332.59;4956353;28;20866;-59
2021/08/18 06:18:23;;;;;;;0.40;0.20;;;;;;;17.06;100.00;100340.97;4956193;28;20467;-59
2021/08/18 06:20:50;;;;;;;0.40;0.20;;;;;;;17.13;100.00;100331.63;4956223;28;20509;-58
2021/08/18 06:23:20;;;;;;;0.40;0.20;;;;;;;17.27;100.00;100335.34;4956185;28;20893;-59
2021/08/18 06:25:48;;;;;;;0.40;0.20;;;;;;;17.36;100.00;100338.38;4956195;28;20483;-59
2021/08/18 06:28:16;;;;;;;0.40;0.20;;;;;;;17.60;100.00;100333.47;4955802;28;20499;-59
2021/08/18 06:30:43;;;;;;;0.40;0.20;;;;;;;17.58;100.00;100338.06;4956316;28;20526;-59
2021/08/18 06:33:10;;;;;;;0.40;0.20;;;;;;;17.59;100.00;100337.09;4956125;28;20456;-59
2021/08/18 06:35:38;;;;;;;0.40;0.20;;;;;;;18.03;100.00;100336.38;4956130;28;20498;-59
2021/08/18 06:38:05;;;;;;;0.40;0.20;;;;;;;17.70;100.00;100336.53;4955852;28;20476;-59
2021/08/18 06:40:32;;;;;;;0.40;0.20;;;;;;;17.73;100.00;100334.53;4956484;28;20877;-59
2021/08/18 06:42:59;;;;;;;0.40;0.20;;;;;;;17.75;100.00;100340.69;4950063;29;20490;-59
2021/08/18 06:45:28;;;;;;;0.40;0.20;;;;;;;17.93;100.00;100344.13;4949746;29;20502;-59
2021/08/18 06:47:55;;;;;;;0.40;0.20;;;;;;;17.90;100.00;100348.81;4955449;28;20586;-60
2021/08/18 06:50:23;;;;;;;0.40;0.20;;;;;;;18.23;100.00;100341.47;4955571;28;20502;-59
2021/08/18 06:52:50;;;;;;;0.40;0.20;;;;;;;17.91;100.00;100351.41;4955702;28;20459;-59
2021/08/18 06:55:18;;;;;;;0.40;0.20;;;;;;;18.05;100.00;100340.72;4955994;28;20451;-60
2021/08/18 06:57:46;;;;;;;0.40;0.20;;;;;;;18.09;100.00;100346.78;4955523;28;20534;-59
2021/08/18 07:00:13;;;;;;;0.40;0.20;;;;;;;17.98;100.00;100351.94;4955407;28;20459;-59
2021/08/18 07:02:46;;;;;;;0.40;0.20;;;;;;;18.20;100.00;100343.47;4954722;28;20541;-59
2021/08/18 07:05:15;;;;;;;0.40;0.20;;;;;;;18.22;100.00;100347.78;4955867;28;20483;-59
2021/08/18 07:07:43;;;;;;;0.40;0.20;;;;;;;18.05;100.00;100339.84;4955289;28;20550;-59
2021/08/18 07:10:11;;;;;;;0.40;0.20;;;;;;;18.00;100.00;100342.81;4945753;28;20538;-59
2021/08/18 07:12:38;;;;;;;0.40;0.20;;;;;;;18.37;100.00;100343.34;4953432;29;20455;-59
2021/08/18 07:15:06;;;;;;;0.40;0.20;;;;;;;18.54;100.00;100355.78;4952535;28;20463;-59
2021/08/18 07:17:33;;;;;;;0.40;0.20;;;;;;;18.40;100.00;100343.16;4955053;28;20503;-59
2021/08/18 07:20:00;;;;;;;0.40;0.20;;;;;;;18.46;100.00;100348.16;4955144;28;20455;-59
2021/08/18 07:22:27;;;;;;;0.40;0.20;;;;;;;18.30;100.00;100347.34;4955444;28;20462;-59
2021/08/18 07:24:55;;;;;;;0.40;0.20;;;;;;;18.40;100.00;100342.28;4955030;28;20455;-59
2021/08/18 07:27:22;;;;;;;0.40;0.20;;;;;;;18.34;100.00;100349.75;4954992;28;21016;-59
2021/08/18 07:29:49;;;;;;;0.40;0.30;;;;;;;18.72;100.00;100353.81;4954890;28;20490;-59
2021/08/18 07:32:16;;;;;;;0.40;0.20;;;;;;;18.45;100.00;100343.72;4937220;28;20512;-59
2021/08/18 07:34:42;;;;;;;0.40;0.20;;;;;;;18.29;100.00;100349.16;4943334;29;20456;-59
2021/08/18 07:37:09;;;;;;;0.40;0.20;;;;;;;18.32;100.00;100346.28;4954719;28;20476;-59
2021/08/18 07:39:36;;;;;;;0.40;0.20;;;;;;;18.28;100.00;100350.13;4954849;28;20479;-59
2021/08/18 07:42:04;;;;;;;0.40;0.20;;;;;;;18.66;100.00;100346.13;4953761;29;20452;-59
2021/08/18 07:44:31;;;;;;;0.40;0.20;;;;;;;18.49;100.00;100347.09;4943150;28;20490;-59
2021/08/18 07:46:58;;;;;;;0.40;0.20;;;;;;;18.70;100.00;100344.97;4954767;28;20463;-59
2021/08/18 07:49:25;;;;;;;0.40;0.20;;;;;;;18.54;100.00;100345.88;4954407;28;20514;-59
2021/08/18 07:51:52;;;;;;;0.40;0.20;;;;;;;18.56;100.00;100351.16;4954674;28;20479;-59
2021/08/18 07:54:18;;;;;;;0.40;0.20;;;;;;;18.77;100.00;100351.69;4954466;28;20489;-59
2021/08/18 07:56:45;;;;;;;0.40;0.20;;;;;;;18.88;100.00;100351.91;4954698;28;20479;-59
2021/08/18 07:59:12;;;;;;;0.40;0.20;;;;;;;18.91;100.00;100354.41;4954404;28;20852;-59
2021/08/18 08:01:40;;;;;;;0.40;0.20;;;;;;;18.62;100.00;100350.78;4953494;28;20483;-60
2021/08/18 08:04:08;;;;;;;0.40;0.20;;;;;;;18.70;100.00;100355.75;4954633;28;20542;-59
2021/08/18 08:06:35;;;;;;;0.40;0.20;;;;;;;18.54;100.00;100362.03;4954468;28;20455;-59
2021/08/18 08:09:02;;;;;;;0.40;0.20;;;;;;;18.56;100.00;100361.94;4949954;28;20500;-59
2021/08/18 08:11:29;;;;;;;0.40;0.20;;;;;;;18.75;100.00;100359.88;4949381;29;20875;-59
2021/08/18 08:13:56;;;;;;;0.40;0.20;;;;;;;18.77;100.00;100352.56;4950000;28;20454;-60
2021/08/18 08:16:23;;;;;;;0.40;0.20;;;;;;;18.78;100.00;100354.34;4954042;29;20455;-60
2021/08/18 08:18:50;;;;;;;0.40;0.20;;;;;;;18.83;100.00;100359.44;4953969;28;20479;-59
2021/08/18 08:21:17;;;;;;;0.40;0.20;;;;;;;19.02;100.00;100365.38;4954153;28;20880;-59
2021/08/18 08:23:44;;;;;;;0.40;0.20;;;;;;;18.73;100.00;100360.94;4952762;29;20463;-59
2021/08/18 08:26:11;;;;;;;0.40;0.20;;;;;;;18.83;100.00;100362.13;4953955;28;20494;-59
2021/08/18 08:28:38;;;;;;;0.40;0.20;;;;;;;18.96;100.00;100365.78;4953957;28;20503;-59
2021/08/18 08:31:05;;;;;;;0.97;0.97;;;;;;;19.01;100.00;100374.44;4954029;28;20452;-58
2021/08/18 08:33:32;;;;;;;0.40;0.20;;;;;;;19.26;100.00;100356.72;4954283;28;20455;-59
2021/08/18 08:35:59;;;;;;;2.60;0.60;;;;;;;19.02;100.00;100365.38;4954084;28;20455;-59
2021/08/18 08:38:26;;;;;;;0.40;0.20;;;;;;;19.00;99.56;100371.84;4953995;28;20495;-59
2021/08/18 08:40:53;;;;;;;0.40;0.20;;;;;;;19.00;100.00;100355.69;4952754;29;20514;-58
2021/08/18 08:43:20;;;;;;;0.40;0.20;;;;;;;19.16;98.84;100373.47;4946400;28;20483;-59
2021/08/18 08:45:47;;;;;;;0.40;0.20;;;;;;;19.11;100.00;100362.13;4950146;29;20455;-57
2021/08/18 08:48:16;;;;;;;0.40;0.20;;;;;;;18.89;100.00;100367.13;4953878;28;20581;-58
2021/08/18 08:50:45;;;;;;;0.40;0.20;;;;;;;19.12;98.24;100366.56;4953985;28;20898;-59
2021/08/18 08:53:12;;;;;;;0.40;0.30;;;;;;;19.04;99.38;100362.59;4953984;28;20452;-59
2021/08/18 08:55:43;;;;;;;0.40;0.20;;;;;;;19.04;99.05;100371.53;4953830;28;20510;-59
2021/08/18 08:58:10;;;;;;;0.40;0.20;;;;;;;19.14;99.70;100364.63;4953838;28;20471;-59
2021/08/18 09:00:36;;;;;;;0.40;0.20;;;;;;;19.36;98.24;100360.59;4953909;28;20430;-59
2021/08/18 09:03:23;;;;;;;0.40;0.20;;;;;;;19.65;97.88;100361.44;4953147;29;20458;-60
2021/08/18 09:05:52;;;;;;;0.40;0.20;;;;;;;19.53;97.52;100366.63;4933022;29;20455;-59
2021/08/18 09:08:22;;;;;;;0.40;0.20;;;;;;;19.45;97.64;100366.22;4953717;28;20503;-60
2021/08/18 09:11:08;;;;;;;0.40;0.20;;;;;;;19.68;96.22;100361.22;4945159;28;20969;-59
2021/08/18 09:13:48;;;;;;;0.40;0.20;;;;;;;19.76;96.50;100359.78;4949935;28;20953;-59
2021/08/18 09:16:20;;;;;;;0.40;0.20;;;;;;;20.18;95.35;100360.59;4953812;28;20494;-59
2021/08/18 09:18:53;;;;;;;0.40;0.20;;;;;;;20.27;95.33;100359.09;4953733;28;20467;-60
2021/08/18 09:21:34;;;;;;;0.40;0.20;;;;;;;20.48;92.48;100363.06;4953618;28;20425;-59
2021/08/18 09:24:16;;;;;;;0.40;0.20;;;;;;;20.08;92.76;100360.34;4953942;28;20502;-60
2021/08/18 09:26:54;;;;;;;0.50;0.30;;;;;;;20.01;93.38;100355.44;4954266;28;20462;-59
2021/08/18 09:29:36;;;;;;;0.40;0.20;;;;;;;20.17;93.35;100350.75;4953410;28;20498;-59
2021/08/18 09:32:21;;;;;;;0.40;0.20;;;;;;;20.24;92.61;100348.50;4953722;28;20451;-60
2021/08/18 09:35:09;;;;;;;0.57;0.57;;;;;;;20.50;92.34;100349.47;4953700;29;20538;-59
2021/08/18 09:37:38;;;;;;;0.40;0.20;;;;;;;20.67;92.62;100341.91;4953457;28;20491;-59
2021/08/18 09:40:23;;;;;;;0.63;0.63;;;;;;;20.39;91.59;100342.91;4956591;28;20479;-59
2021/08/18 09:42:51;;;;;;;0.40;0.20;;;;;;;20.58;93.33;100339.00;4953673;28;20941;-60
2021/08/18 09:45:21;;;;;;;0.40;0.20;;;;;;;20.48;91.98;100346.00;4951534;29;20873;-60
2021/08/18 09:47:54;;;;;;;0.40;0.20;;;;;;;20.53;91.22;100344.69;4956895;28;20534;-60
2021/08/18 09:50:23;;;;;;;0.40;0.20;;;;;;;20.72;91.03;100341.63;4954874;28;20437;-60
2021/08/18 09:52:51;;;;;;;0.40;0.30;;;;;;;20.85;89.93;100345.19;4946741;29;20456;-59
2021/08/18 09:55:25;;;;;;;0.40;0.20;;;;;;;21.13;88.87;100335.13;4956749;28;20513;-60
2021/08/18 09:57:52;;;;;;;0.40;0.30;;;;;;;20.96;89.94;100334.44;4956844;28;20502;-59
2021/08/18 10:00:19;;;;;;;0.40;0.20;;;;;;;21.25;88.69;100339.69;4956614;28;20493;-60
2021/08/18 10:02:46;;;;;;;0.40;0.20;;;;;;;20.96;87.02;100337.16;4956358;28;20437;-60
2021/08/18 10:05:14;;;;;;;0.40;0.20;;;;;;;21.06;86.56;100331.97;4957034;28;20463;-60
2021/08/18 10:07:41;;;;;;;0.40;0.20;;;;;;;21.08;87.58;100327.31;4956649;28;20491;-60
2021/08/18 10:10:08;;;;;;;1.60;0.90;;;;;;;21.17;88.49;100331.22;4946847;28;20976;-60
2021/08/18 10:12:36;;;;;;;0.40;0.30;;;;;;;20.94;88.66;100328.28;4954981;28;20451;-60
2021/08/18 10:15:05;;;;;;;0.40;0.20;;;;;;;21.10;87.68;100333.47;4954098;29;21016;-60
2021/08/18 10:17:39;;;;;;;0.57;0.50;;;;;;;21.15;86.81;100333.16;4956444;28;20501;-60
2021/08/18 10:20:09;;;;;;;1.03;0.63;;;;;;;20.83;86.89;100325.53;4956464;28;20436;-60
2021/08/18 10:22:36;;;;;;;0.80;0.40;;;;;;;20.87;87.36;100323.44;4956457;28;20810;-60
2021/08/18 10:25:34;;;;;;;0.40;0.20;;;;;;;21.22;86.60;100332.59;4956263;28;20487;-60
2021/08/18 10:28:08;;;;;;;0.40;0.20;;;;;;;21.61;86.40;100332.53;4952893;29;20546;-60
2021/08/18 10:30:50;;;;;;;0.40;0.20;;;;;;;21.55;87.62;100323.06;4956251;28;20450;-60
2021/08/18 10:33:52;;;;;;;0.40;0.30;;;;;;;21.48;85.82;100321.75;4956058;28;21021;-60
2021/08/18 10:36:40;;;;;;;0.60;0.53;;;;;;;21.40;86.25;100325.03;4956287;28;20530;-60
2021/08/18 10:39:25;;;;;;;0.40;0.20;;;;;;;21.50;85.56;100326.06;4955949;28;20518;-60
2021/08/18 10:42:02;;;;;;;0.40;0.20;;;;;;;21.25;86.64;100323.47;4955983;28;20450;-59
2021/08/18 10:44:45;;;;;;;0.40;0.20;;;;;;;21.87;85.17;100326.94;4945171;28;20483;-60
2021/08/18 10:47:30;;;;;;;0.40;0.20;;;;;;;21.82;85.76;100325.56;4955754;28;20463;-60
2021/08/18 10:50:23;;;;;;;0.40;0.20;;;;;;;22.10;84.05;100327.94;4955776;28;20506;-60
2021/08/18 10:52:54;;;;;;;0.40;0.20;;;;;;;22.04;82.46;100325.66;4955722;28;20470;-60
2021/08/18 10:55:22;;;;;;;0.40;0.20;;;;;;;22.16;83.21;100332.00;4955893;28;20451;-60
2021/08/18 10:57:50;;;;;;;0.40;0.20;;;;;;;22.10;83.16;100325.22;4955816;28;20511;-60
2021/08/18 11:00:38;;;;;;;0.40;0.20;;;;;;;21.62;84.28;100328.84;4954439;29;20480;-60
2021/08/18 11:03:06;;;;;;;0.40;0.20;;;;;;;21.69;84.86;100332.84;4955121;28;20418;-60
2021/08/18 11:05:36;;;;;;;0.40;0.20;;;;;;;21.40;84.30;100330.44;4955759;28;20463;-60
2021/08/18 11:08:10;;;;;;;0.40;0.20;;;;;;;21.80;83.92;100322.97;4955343;28;20490;-60
2021/08/18 11:10:37;;;;;;;0.70;0.60;;;;;;;21.83;83.57;100321.88;4945944;28;20454;-59
2021/08/18 11:13:06;;;;;;;0.77;0.67;;;;;;;22.22;83.51;100323.44;4950828;28;20431;-60
2021/08/18 11:15:33;;;;;;;0.50;0.30;;;;;;;22.66;80.43;100320.00;4955235;28;20980;-60
2021/08/18 11:18:03;;;;;;;0.40;0.30;;;;;;;22.99;79.01;100327.31;4955099;28;20442;-60
2021/08/18 11:20:30;;;;;;;0.40;0.20;;;;;;;22.93;80.29;100327.81;4955508;28;20869;-60
2021/08/18 11:23:05;;;;;;;0.40;0.30;;;;;;;22.96;79.17;100321.28;4955067;28;20461;-60
2021/08/18 11:25:42;;;;;;;0.40;0.20;;;;;;;23.17;78.52;100318.72;4955237;28;20446;-60
2021/08/18 11:28:23;;;;;;;0.40;0.20;;;;;;;23.56;78.33;100323.59;4954907;28;20554;-60